Time;durP1;ratioP1;P1;durP2;ratioP2;P2;SDS_P1;SDS_P2;PMS_P1;PMS_P2;Temp;Humidity;BMP_temperature;BMP_pressure;BME280_temperature;BME280_humidity;BME280_pressure;Samples;Min_cycle;Max_cycle;Signal;HPM_P1;HPM_P2
2023/07/02 00:00:25;;;;;;;;;30.75;26.50;;;;;24.25;39.71;100772.75;4938846;28;46347;-46
2023/07/02 00:02:50;;;;;;;;;31.75;25.00;;;;;24.22;40.21;100781.78;4939060;28;45436;-48
2023/07/02 00:05:17;;;;;;;;;39.25;24.50;;;;;24.22;39.85;100780.91;4939055;28;45459;-46
2023/07/02 00:07:42;;;;;;;;;35.00;26.00;;;;;24.19;39.87;100775.88;4939550;28;45614;-45
2023/07/02 00:10:07;;;;;;;;;28.00;20.50;;;;;24.18;39.72;100779.47;4938822;28;46218;-48
2023/07/02 00:12:33;;;;;;;;;27.25;23.00;;;;;24.18;39.68;100777.66;4937729;28;45263;-45
2023/07/02 00:14:58;;;;;;;;;29.25;24.50;;;;;24.19;40.24;100781.16;4938827;28;45483;-46
2023/07/02 00:17:23;;;;;;;;;25.25;16.50;;;;;24.20;40.29;100782.81;4939046;28;45599;-47
2023/07/02 00:19:51;;;;;;;;;32.25;25.25;;;;;24.19;40.19;100779.34;4938554;28;47164;-46
2023/07/02 00:22:16;;;;;;;;;27.75;21.75;;;;;24.19;40.10;100778.50;4938814;28;45432;-46
2023/07/02 00:24:42;;;;;;;;;29.75;24.50;;;;;24.19;40.09;100775.88;4939228;28;45478;-46
2023/07/02 00:27:08;;;;;;;;;27.75;22.00;;;;;24.19;39.86;100778.50;4938908;28;45442;-46
2023/07/02 00:29:33;;;;;;;;;34.25;25.75;;;;;24.17;40.42;100772.47;4938511;28;45430;-49
2023/07/02 00:31:58;;;;;;;;;28.00;24.25;;;;;24.16;39.87;100770.78;4938523;28;45428;-50
2023/07/02 00:34:24;;;;;;;;;33.75;28.25;;;;;24.14;39.89;100770.03;4938870;28;45367;-47
2023/07/02 00:36:50;;;;;;;;;25.75;23.25;;;;;24.14;40.03;100770.03;4937759;28;45430;-49
2023/07/02 00:39:17;;;;;;;;;27.50;22.50;;;;;24.14;39.95;100770.03;4938679;28;46283;-45
2023/07/02 00:41:44;;;;;;;;;30.75;25.00;;;;;24.15;40.18;100771.75;4938664;28;45894;-45
2023/07/02 00:44:10;;;;;;;;;22.75;20.75;;;;;24.15;40.32;100774.38;4938795;28;45315;-45
2023/07/02 00:46:35;;;;;;;;;30.75;24.25;;;;;24.14;40.48;100772.69;4937423;28;45444;-45
2023/07/02 00:49:04;;;;;;;;;31.50;26.25;;;;;24.15;40.25;100777.88;4938050;28;56732;-47
2023/07/02 00:51:29;;;;;;;;;25.00;17.50;;;;;24.15;40.42;100774.38;4938303;28;45361;-46
2023/07/02 00:53:56;;;;;;;;;25.00;20.25;;;;;24.14;40.01;100777.97;4937131;28;45380;-46
2023/07/02 00:56:23;;;;;;;;;26.25;23.50;;;;;24.13;39.83;100776.28;4937332;28;45578;-46
2023/07/02 00:58:50;;;;;;;;;33.25;25.00;;;;;24.14;40.57;100768.25;4938248;28;46796;-45
2023/07/02 01:01:17;;;;;;;;;28.75;23.75;;;;;24.14;40.13;100767.41;4938478;28;45245;-46
2023/07/02 01:04:03;;;;;;;;;30.25;26.00;;;;;24.14;40.03;100777.97;4938620;28;45627;-50
2023/07/02 01:06:35;;;;;;;;;31.25;23.25;;;;;24.14;40.14;100772.69;4938240;28;45380;-46
2023/07/02 01:09:02;;;;;;;;;32.50;23.25;;;;;24.14;40.62;100783.28;4938027;28;47184;-45
2023/07/02 01:11:36;;;;;;;;;29.50;23.75;;;;;24.11;40.52;100776.41;4938030;28;45404;-46
2023/07/02 01:14:10;;;;;;;;;36.25;25.50;;;;;24.12;40.21;100777.25;4938128;28;45486;-45
2023/07/02 01:16:36;;;;;;;;;30.75;22.75;;;;;24.09;40.09;100781.78;4938482;28;45352;-46
2023/07/02 01:19:04;;;;;;;;;28.50;22.75;;;;;24.12;40.41;100782.53;4936603;28;47096;-45
2023/07/02 01:21:34;;;;;;;;;33.50;26.75;;;;;24.09;40.28;100778.31;4937958;28;45858;-43
2023/07/02 01:24:01;;;;;;;;;31.75;25.25;;;;;24.10;40.34;100790.59;4939310;28;45318;-46
2023/07/02 01:26:33;;;;;;;;;35.00;26.00;;;;;24.11;40.90;100788.78;4941662;28;45368;-43
2023/07/02 01:28:59;;;;;;;;;27.00;21.00;;;;;24.08;40.14;100784.56;4941292;28;45594;-47
2023/07/02 01:31:25;;;;;;;;;34.00;26.50;;;;;24.10;40.45;100787.97;4941316;28;45282;-43
2023/07/02 01:33:51;;;;;;;;;30.00;25.00;;;;;24.11;40.88;100788.78;4941406;28;45340;-45
2023/07/02 01:36:16;;;;;;;;;27.25;22.50;;;;;24.10;40.90;100787.97;4941866;28;45285;-46
2023/07/02 01:38:41;;;;;;;;;33.00;23.25;;;;;24.11;40.50;100788.78;4941095;28;48745;-45
2023/07/02 01:41:07;;;;;;;;;24.75;20.75;;;;;24.07;40.50;100789.03;4940886;28;45311;-46
2023/07/02 01:43:32;;;;;;;;;28.25;24.00;;;;;24.09;40.53;100794.19;4941264;28;45352;-47
2023/07/02 01:45:57;;;;;;;;;24.25;22.25;;;;;24.07;40.83;100783.72;4940138;28;45382;-45
2023/07/02 01:48:23;;;;;;;;;29.25;22.50;;;;;24.05;40.68;100790.94;4940915;28;45980;-44
2023/07/02 01:50:48;;;;;;;;;27.00;18.33;;;;;24.06;40.54;100794.41;4940789;28;55620;-45
2023/07/02 01:53:13;;;;;;;;;29.67;22.67;;;;;24.06;40.89;100791.75;4940678;28;59445;-44
2023/07/02 01:55:39;;;;;;;;;25.50;20.00;;;;;24.04;40.61;100791.88;4941207;28;45574;-44
2023/07/02 01:58:04;;;;;;;;;32.25;23.00;;;;;24.02;40.87;100785.84;4940783;28;50619;-45
2023/07/02 02:00:29;;;;;;;;;28.75;23.75;;;;;24.02;40.91;100788.50;4940612;28;51677;-45
2023/07/02 02:02:55;;;;;;;;;35.00;25.50;;;;;24.02;40.62;100796.44;4941092;28;45317;-45
2023/07/02 02:05:20;;;;;;;;;28.75;22.00;;;;;24.04;40.52;100789.25;4941227;28;45585;-45
2023/07/02 02:07:46;;;;;;;;;30.25;21.00;;;;;24.04;40.58;100799.81;4940739;28;55910;-45
2023/07/02 02:10:11;;;;;;;;;23.75;22.00;;;;;24.03;40.61;100792.84;4940551;28;50032;-44
2023/07/02 02:12:36;;;;;;;;;32.50;22.75;;;;;24.03;40.69;100789.34;4940868;28;45440;-46
2023/07/02 02:15:02;;;;;;;;;25.33;19.00;;;;;24.00;41.09;100786.91;4938982;28;55527;-46
2023/07/02 02:17:27;;;;;;;;;31.25;24.75;;;;;24.01;41.10;100785.97;4940507;28;45622;-44
2023/07/02 02:19:52;;;;;;;;;31.00;27.00;;;;;23.99;41.08;100791.34;4939328;28;45368;-46
2023/07/02 02:22:18;;;;;;;;;27.75;20.00;;;;;23.98;41.03;100791.47;4939768;28;45326;-43
2023/07/02 02:24:43;;;;;;;;;33.50;21.00;;;;;23.98;41.36;100792.31;4939652;28;45252;-47
2023/07/02 02:27:08;;;;;;;;;28.67;24.33;;;;;23.97;40.80;100795.94;4939795;28;66666;-43
2023/07/02 02:29:34;;;;;;;;;24.75;19.50;;;;;23.97;41.24;100798.59;4940619;28;45328;-45
2023/07/02 02:31:59;;;;;;;;;30.75;22.75;;;;;23.96;40.98;100802.19;4940549;28;45352;-48
2023/07/02 02:34:24;;;;;;;;;29.75;24.00;;;;;23.95;41.30;100800.47;4940656;28;45582;-46
2023/07/02 02:36:50;;;;;;;;;31.00;22.00;;;;;23.94;41.36;100796.94;4939722;28;46497;-44
2023/07/02 02:39:15;;;;;;;;;30.25;23.75;;;;;23.94;41.20;100798.75;4940477;28;45234;-46
2023/07/02 02:41:41;;;;;;;;;24.50;22.00;;;;;23.95;41.34;100800.47;4940349;28;45228;-49
2023/07/02 02:44:06;;;;;;;;;24.50;22.25;;;;;23.93;41.08;100803.19;4940536;28;45277;-47
2023/07/02 02:46:31;;;;;;;;;26.25;20.50;;;;;23.91;41.35;100802.47;4938772;28;48522;-45
2023/07/02 02:48:57;;;;;;;;;28.25;21.00;;;;;23.92;41.32;100806.78;4940067;28;45402;-46
2023/07/02 02:51:22;;;;;;;;;29.00;23.00;;;;;23.90;41.27;100802.56;4940496;28;45423;-46
2023/07/02 02:53:48;;;;;;;;;25.50;18.75;;;;;23.91;41.48;100805.13;4940119;28;45360;-47
2023/07/02 02:56:13;;;;;;;;;26.00;19.00;;;;;23.92;41.38;100806.78;4939897;28;45329;-46
2023/07/02 02:58:40;;;;;;;;;20.50;16.75;;;;;23.92;40.83;100803.31;4940197;28;45336;-46
2023/07/02 03:01:10;;;;;;;;;29.50;24.00;;;;;23.89;41.46;100796.44;4939910;28;45264;-47
2023/07/02 03:03:38;;;;;;;;;28.75;19.50;;;;;23.90;41.03;100791.97;4940312;28;45304;-46
2023/07/02 03:06:04;;;;;;;;;29.25;20.00;;;;;23.89;41.59;100792.94;4939807;28;47073;-45
2023/07/02 03:08:30;;;;;;;;;17.50;14.00;;;;;23.89;41.15;100804.38;4939888;28;45442;-48
2023/07/02 03:10:55;;;;;;;;;26.00;20.75;;;;;23.86;41.11;100796.66;4940014;28;45519;-46
2023/07/02 03:13:20;;;;;;;;;22.75;18.75;;;;;23.87;41.68;100802.78;4940230;28;45672;-45
2023/07/02 03:15:46;;;;;;;;;23.25;19.00;;;;;23.88;41.05;100809.75;4937895;28;58980;-45
2023/07/02 03:18:11;;;;;;;;;24.00;20.00;;;;;23.86;41.12;100801.09;4938378;28;46360;-43
2023/07/02 03:20:36;;;;;;;;;16.00;14.00;;;;;23.83;41.81;100796.84;4938339;28;45424;-44
2023/07/02 03:23:02;;;;;;;;;27.00;19.50;;;;;23.84;41.81;100809.13;4939801;28;45342;-46
2023/07/02 03:25:27;;;;;;;;;23.25;20.50;;;;;23.82;41.66;100799.63;4939574;28;46098;-45
2023/07/02 03:27:52;;;;;;;;;24.00;20.00;;;;;23.82;41.30;100805.75;4939340;28;52969;-44
2023/07/02 03:30:17;;;;;;;;;20.75;18.25;;;;;23.83;41.63;100809.25;4939073;28;56281;-44
2023/07/02 03:32:43;;;;;;;;;29.25;20.25;;;;;23.81;41.94;100809.38;4939783;28;45222;-46
2023/07/02 03:35:08;;;;;;;;;29.25;17.50;;;;;23.80;41.70;100815.63;4939350;28;46387;-44
2023/07/02 03:37:33;;;;;;;;;27.75;22.50;;;;;23.80;41.37;100817.41;4939425;28;45290;-48
2023/07/02 03:39:59;;;;;;;;;24.50;17.75;;;;;23.80;41.41;100817.41;4939054;28;48309;-45
2023/07/02 03:42:24;;;;;;;;;32.75;22.25;;;;;23.78;41.74;100825.47;4939811;28;45431;-46
2023/07/02 03:44:49;;;;;;;;;20.75;18.25;;;;;23.78;41.50;100831.59;4937915;28;48158;-43
2023/07/02 03:47:16;;;;;;;;;23.00;18.25;;;;;23.77;41.97;100826.41;4938929;28;45345;-46
2023/07/02 03:49:41;;;;;;;;;26.00;20.50;;;;;23.77;41.33;100835.19;4939344;28;45309;-44
2023/07/02 03:52:07;;;;;;;;;22.75;15.50;;;;;23.75;41.82;100847.69;4939570;28;45614;-46
2023/07/02 03:54:32;;;;;;;;;19.75;18.00;;;;;23.74;41.67;100851.28;4937805;28;46339;-47
2023/07/02 03:56:58;;;;;;;;;30.00;22.50;;;;;23.73;41.87;100844.31;4938761;28;52976;-46
2023/07/02 03:59:23;;;;;;;;;21.75;16.75;;;;;23.73;41.90;100840.78;4939178;28;46857;-46
2023/07/02 04:01:48;;;;;;;;;26.50;22.25;;;;;23.70;41.78;100835.72;4939204;28;45315;-45
2023/07/02 04:04:13;;;;;;;;;22.50;19.00;;;;;23.72;41.58;100850.53;4938897;28;49570;-46
2023/07/02 04:06:39;;;;;;;;;26.50;19.25;;;;;23.71;42.17;100846.19;4938773;28;48264;-47
2023/07/02 04:09:04;;;;;;;;;22.75;20.50;;;;;23.72;42.19;100853.19;4939176;28;45250;-44
2023/07/02 04:11:29;;;;;;;;;21.00;17.25;;;;;23.70;41.59;100852.44;4939145;28;45574;-45
2023/07/02 04:13:55;;;;;;;;;27.50;21.00;;;;;23.71;41.64;100847.97;4937657;28;46529;-46
2023/07/02 04:16:20;;;;;;;;;26.67;19.67;;;;;23.70;41.91;100849.78;4938292;28;62723;-47
2023/07/02 04:18:45;;;;;;;;;23.00;15.00;;;;;23.68;42.33;100843.75;4938726;28;46772;-47
2023/07/02 04:21:10;;;;;;;;;25.67;20.33;;;;;23.69;41.95;100855.22;4938334;28;55256;-44
2023/07/02 04:23:36;;;;;;;;;24.50;20.00;;;;;23.69;42.16;100856.03;4938712;28;45477;-45
2023/07/02 04:26:01;;;;;;;;;23.25;21.50;;;;;23.67;42.13;100857.94;4938732;28;45316;-47
2023/07/02 04:28:26;;;;;;;;;27.75;18.00;;;;;23.66;42.28;100853.59;4939226;28;45291;-49
2023/07/02 04:30:52;;;;;;;;;27.75;21.25;;;;;23.68;41.94;100859.63;4938953;28;45313;-47
2023/07/02 04:33:19;;;;;;;;;25.50;16.50;;;;;23.68;42.36;100864.94;4938542;28;47737;-46
2023/07/02 04:35:44;;;;;;;;;24.00;17.25;;;;;23.68;41.89;100867.56;4938342;28;50286;-47
2023/07/02 04:38:10;;;;;;;;;21.00;18.25;;;;;23.69;42.11;100865.78;4938793;28;45506;-43
2023/07/02 04:40:35;;;;;;;;;25.50;19.25;;;;;23.70;41.94;100865.69;4938673;28;45455;-45
2023/07/02 04:43:00;;;;;;;;;27.75;16.50;;;;;23.70;41.75;100872.78;4938417;28;46520;-47
2023/07/02 04:45:31;;;;;;;;;21.75;18.25;;;;;23.68;42.23;100872.88;4938736;28;45230;-44
2023/07/02 04:47:57;;;;;;;;;22.25;16.25;;;;;23.70;41.71;100872.78;4938800;28;45444;-47
2023/07/02 04:50:22;;;;;;;;;28.75;21.25;;;;;23.69;41.77;100868.44;4938694;28;45546;-45
2023/07/02 04:52:48;;;;;;;;;27.25;21.00;;;;;23.71;42.21;100871.81;4938301;28;45337;-44
2023/07/02 04:55:13;;;;;;;;;31.00;20.00;;;;;23.70;41.68;100872.78;4938263;28;45300;-46
2023/07/02 04:57:39;;;;;;;;;27.00;19.00;;;;;23.70;41.74;100867.47;4938247;28;45367;-42
2023/07/02 05:00:06;;;;;;;;;19.75;18.00;;;;;23.69;42.13;100873.72;4936821;28;45366;-46
2023/07/02 05:02:31;;;;;;;;;22.50;16.25;;;;;23.69;41.98;100871.91;4937226;28;47423;-45
2023/07/02 05:04:57;;;;;;;;;18.25;16.00;;;;;23.69;41.85;100871.09;4938656;28;45309;-49
2023/07/02 05:07:22;;;;;;;;;17.00;14.00;;;;;23.71;42.01;100874.44;4938403;28;45336;-45
2023/07/02 05:09:49;;;;;;;;;17.25;14.25;;;;;23.71;42.35;100872.66;4938417;28;45523;-46
2023/07/02 05:12:14;;;;;;;;;20.75;16.75;;;;;23.70;42.32;100870.13;4938104;28;46313;-48
2023/07/02 05:14:40;;;;;;;;;20.50;16.00;;;;;23.70;42.03;100873.63;4938016;28;45389;-44
2023/07/02 05:17:05;;;;;;;;;21.25;15.00;;;;;23.69;41.87;100877.22;4937743;28;51140;-45
2023/07/02 05:19:30;;;;;;;;;15.25;15.25;;;;;23.67;42.40;100871.16;4938604;28;45336;-44
2023/07/02 05:21:56;;;;;;;;;22.75;18.25;;;;;23.67;41.77;100873.81;4937703;28;45288;-45
2023/07/02 05:24:21;;;;;;;;;20.50;15.25;;;;;23.68;41.96;100877.31;4920629;28;45329;-47
2023/07/02 05:26:46;;;;;;;;;28.00;18.75;;;;;23.66;42.23;100879.22;4937945;28;45479;-46
2023/07/02 05:29:13;;;;;;;;;20.50;16.50;;;;;23.67;42.27;100880.91;4938140;28;45257;-48
2023/07/02 05:31:38;;;;;;;;;19.25;15.00;;;;;23.68;41.86;100874.69;4937780;28;46063;-46
2023/07/02 05:34:04;;;;;;;;;13.75;12.75;;;;;23.68;42.56;100880.81;4937847;28;45242;-44
2023/07/02 05:36:29;;;;;;;;;24.50;17.25;;;;;23.67;42.61;100884.41;4937072;28;45366;-45
2023/07/02 05:38:54;;;;;;;;;26.00;16.00;;;;;23.67;42.59;100887.03;4938111;28;45704;-42
2023/07/02 05:41:21;;;;;;;;;27.00;18.50;;;;;23.69;42.22;100895.72;4937546;28;46382;-42
2023/07/02 05:43:46;;;;;;;;;19.25;18.00;;;;;23.70;42.42;100896.59;4937623;28;45302;-52
2023/07/02 05:46:13;;;;;;;;;16.50;15.75;;;;;23.67;42.62;100892.34;4937838;28;45357;-52
2023/07/02 05:48:39;;;;;;;;;15.25;15.25;;;;;23.67;42.53;100886.22;4937484;28;45333;-51
2023/07/02 05:51:04;;;;;;;;;16.75;15.75;;;;;23.67;42.18;100892.34;4937527;28;45406;-44
2023/07/02 05:53:30;;;;;;;;;25.00;18.00;;;;;23.66;41.84;100895.94;4936702;28;51513;-55
2023/07/02 05:55:55;;;;;;;;;23.00;17.25;;;;;23.67;42.17;100897.63;4937560;28;45368;-53
2023/07/02 05:58:21;;;;;;;;;19.75;16.50;;;;;23.68;42.47;100901.97;4937661;28;45258;-51
2023/07/02 06:00:49;;;;;;;;;19.00;17.33;;;;;23.69;42.72;100901.03;4936819;28;60766;-50
2023/07/02 06:03:19;;;;;;;;;19.50;14.25;;;;;23.69;42.29;100906.31;4937482;28;45874;-46
2023/07/02 06:05:46;;;;;;;;;18.75;16.25;;;;;23.69;42.63;100898.38;4936696;28;45392;-48
2023/07/02 06:08:11;;;;;;;;;17.25;13.50;;;;;23.69;42.61;100906.31;4937658;28;45376;-50
2023/07/02 06:10:36;;;;;;;;;25.75;17.25;;;;;23.68;42.10;100904.63;4939219;28;45510;-46
2023/07/02 06:13:02;;;;;;;;;21.50;16.25;;;;;23.65;42.06;100902.16;4940641;28;54073;-50
2023/07/02 06:15:27;;;;;;;;;20.00;18.00;;;;;23.61;42.20;100900.69;4940446;28;45290;-44
2023/07/02 06:17:52;;;;;;;;;19.25;15.50;;;;;23.58;42.61;100908.84;4940564;28;45644;-50
2023/07/02 06:20:18;;;;;;;;;20.00;17.25;;;;;23.53;42.50;100903.03;4940135;28;54137;-52
2023/07/02 06:22:43;;;;;;;;;21.50;19.25;;;;;23.52;42.28;100920.69;4939193;28;46170;-52
2023/07/02 06:25:08;;;;;;;;;22.25;18.75;;;;;23.47;42.26;100913.06;4940645;28;45266;-54
2023/07/02 06:27:34;;;;;;;;;21.00;16.75;;;;;23.46;42.59;100921.94;4941038;28;45495;-54
2023/07/02 06:29:59;;;;;;;;;17.50;15.00;;;;;23.42;42.43;100915.19;4940112;28;45998;-49
2023/07/02 06:32:24;;;;;;;;;20.25;15.50;;;;;23.39;42.43;100920.66;4939496;28;53048;-54
2023/07/02 06:34:49;;;;;;;;;23.00;15.50;;;;;23.40;42.71;100932.94;4957112;28;45618;-54
2023/07/02 06:37:15;;;;;;;;;19.25;18.25;;;;;23.39;42.89;100928.59;4959874;28;45261;-53
2023/07/02 06:39:40;;;;;;;;;21.00;17.00;;;;;23.38;43.02;100924.25;4939274;28;48128;-50
2023/07/02 06:42:05;;;;;;;;;19.75;13.25;;;;;23.37;43.15;100927.00;4940028;28;45279;-55
2023/07/02 06:44:31;;;;;;;;;20.50;17.00;;;;;23.36;43.03;100933.25;4939394;28;45313;-54
2023/07/02 06:46:56;;;;;;;;;21.25;16.50;;;;;23.34;42.82;100935.97;4938877;28;45367;-55
2023/07/02 06:49:21;;;;;;;;;21.50;17.00;;;;;23.33;43.31;100939.56;4938483;28;46331;-54
2023/07/02 06:51:47;;;;;;;;;18.25;16.75;;;;;23.31;43.29;100944.97;4938533;28;45921;-53
2023/07/02 06:54:13;;;;;;;;;19.75;16.00;;;;;23.31;43.54;100938.84;4938786;28;45783;-54
2023/07/02 06:56:38;;;;;;;;;23.75;18.00;;;;;23.29;42.80;100949.50;4938537;28;45487;-54
2023/07/02 06:59:03;;;;;;;;;21.25;15.25;;;;;23.28;43.64;100946.97;4938130;28;46740;-51
2023/07/02 07:01:29;;;;;;;;;18.75;15.75;;;;;23.26;43.36;100946.22;4938045;28;45620;-54
2023/07/02 07:03:54;;;;;;;;;21.75;17.75;;;;;23.24;43.63;100938.38;4938802;28;45442;-54
2023/07/02 07:06:20;;;;;;;;;19.25;14.75;;;;;23.23;43.15;100941.13;4938761;28;45800;-53
2023/07/02 07:08:45;;;;;;;;;21.25;15.50;;;;;23.25;43.24;100936.56;4939148;28;46372;-54
2023/07/02 07:11:11;;;;;;;;;20.25;17.75;;;;;23.25;43.50;100944.50;4928242;28;46179;-55
2023/07/02 07:13:36;;;;;;;;;19.50;18.25;;;;;23.24;43.58;100946.31;4920208;28;45343;-55
2023/07/02 07:16:01;;;;;;;;;19.25;15.75;;;;;23.26;43.23;100946.22;4919687;28;45477;-54
2023/07/02 07:18:27;;;;;;;;;24.75;19.25;;;;;23.25;43.60;100947.16;4918305;28;46233;-54
2023/07/02 07:20:52;;;;;;;;;23.50;19.00;;;;;23.24;43.64;100945.47;4919276;28;45421;-55
2023/07/02 07:23:18;;;;;;;;;22.50;16.75;;;;;23.23;43.61;100943.75;4919351;28;45254;-52
2023/07/02 07:25:43;;;;;;;;;22.25;17.25;;;;;23.26;43.48;100946.22;4919872;28;45616;-51
2023/07/02 07:28:15;;;;;;;;;25.50;18.75;;;;;23.26;43.28;100949.69;4919748;28;45263;-53
2023/07/02 07:30:40;;;;;;;;;20.75;15.25;;;;;23.27;43.84;100948.75;4919468;28;45853;-54
2023/07/02 07:33:05;;;;;;;;;26.25;19.00;;;;;23.25;43.33;100947.16;4919866;28;45288;-53
2023/07/02 07:35:31;;;;;;;;;19.25;14.50;;;;;23.27;43.59;100955.84;4919806;28;45361;-52
2023/07/02 07:37:56;;;;;;;;;19.75;15.25;;;;;23.27;43.66;100954.03;4919334;28;45381;-52
2023/07/02 07:40:21;;;;;;;;;22.00;16.50;;;;;23.28;43.70;100950.44;4931974;28;45419;-54
2023/07/02 07:42:47;;;;;;;;;16.25;14.00;;;;;23.30;43.78;100953.00;4937695;28;45320;-55
2023/07/02 07:45:12;;;;;;;;;20.75;17.75;;;;;23.30;43.47;100947.72;4938180;28;45526;-53
2023/07/02 07:47:38;;;;;;;;;21.25;17.50;;;;;23.33;43.44;100954.59;4938127;28;46524;-52
2023/07/02 07:50:09;;;;;;;;;25.75;19.25;;;;;23.33;43.57;100957.25;4937576;28;45915;-52
2023/07/02 07:52:36;;;;;;;;;26.50;17.50;;;;;23.34;43.50;100948.34;4936491;28;45640;-54
2023/07/02 07:55:01;;;;;;;;;21.00;18.50;;;;;23.35;43.19;100958.00;4938624;28;45548;-50
2023/07/02 07:57:26;;;;;;;;;22.25;16.00;;;;;23.35;43.82;100961.47;4938133;28;45367;-51
2023/07/02 07:59:52;;;;;;;;;17.75;16.75;;;;;23.35;43.48;100966.75;4929714;28;45377;-54
2023/07/02 08:02:17;;;;;;;;;19.50;16.50;;;;;23.36;43.15;100965.81;4918684;28;48568;-54
2023/07/02 08:04:42;;;;;;;;;20.50;16.50;;;;;23.37;43.43;100964.03;4919320;28;45688;-53
2023/07/02 08:07:09;;;;;;;;;27.00;18.75;;;;;23.37;43.10;100967.50;4917882;28;46171;-53
2023/07/02 08:09:34;;;;;;;;;23.00;18.75;;;;;23.37;43.62;100967.50;4918747;28;45294;-51
2023/07/02 08:12:00;;;;;;;;;17.25;14.50;;;;;23.36;43.12;100960.53;4918773;28;45385;-54
2023/07/02 08:14:25;;;;;;;;;21.75;17.50;;;;;23.36;42.78;100965.81;4919105;28;45291;-52
2023/07/02 08:16:51;;;;;;;;;24.75;19.00;;;;;23.36;43.41;100963.16;4918632;28;45480;-51
2023/07/02 08:19:16;;;;;;;;;22.50;15.50;;;;;23.37;43.13;100964.88;4919547;28;45717;-53
2023/07/02 08:21:42;;;;;;;;;25.75;19.75;;;;;23.38;43.08;100963.06;4929279;28;45446;-46
2023/07/02 08:24:07;;;;;;;;;20.00;16.00;;;;;23.41;43.27;100971.66;4938540;28;45211;-45
2023/07/02 08:26:33;;;;;;;;;21.50;18.50;;;;;23.41;43.07;100962.88;4937862;28;46210;-53
2023/07/02 08:28:58;;;;;;;;;20.00;14.75;;;;;23.41;43.21;100971.66;4933888;28;46412;-48
2023/07/02 08:31:23;;;;;;;;;17.25;16.50;;;;;23.39;42.83;100973.56;4938043;28;45717;-54
2023/07/02 08:33:49;;;;;;;;;21.50;17.25;;;;;23.42;43.22;100972.50;4936965;28;45480;-54
2023/07/02 08:36:14;;;;;;;;;18.50;16.50;;;;;23.41;43.26;100976.94;4937250;28;60896;-50
2023/07/02 08:38:41;;;;;;;;;23.00;17.75;;;;;23.42;43.05;100976.00;4937968;28;45515;-55
2023/07/02 08:41:07;;;;;;;;;19.75;14.75;;;;;23.42;43.02;100983.94;4937694;28;45516;-53
2023/07/02 08:43:33;;;;;;;;;22.00;17.00;;;;;23.45;42.73;100982.88;4937977;28;45428;-50
2023/07/02 08:45:59;;;;;;;;;19.75;16.25;;;;;23.45;42.71;100986.38;4937737;28;45530;-53
2023/07/02 08:48:26;;;;;;;;;19.75;17.25;;;;;23.47;43.02;100986.28;4937617;28;45351;-48
2023/07/02 08:50:51;;;;;;;;;19.75;14.00;;;;;23.47;43.15;100987.13;4937733;28;45400;-49
2023/07/02 08:53:17;;;;;;;;;22.25;17.75;;;;;23.46;42.79;100985.41;4937788;28;45298;-49
2023/07/02 08:55:42;;;;;;;;;23.75;18.00;;;;;23.46;43.11;100980.13;4937816;28;45317;-48
2023/07/02 08:58:07;;;;;;;;;18.75;16.50;;;;;23.45;42.38;100978.44;4938225;28;45269;-45
2023/07/02 09:00:36;;;;;;;;;22.50;17.75;;;;;23.46;42.38;100979.28;4938304;28;45378;-48
2023/07/02 09:03:18;;;;;;;;;21.50;19.50;;;;;23.44;42.77;100979.38;4940439;28;45278;-47
2023/07/02 09:05:53;;;;;;;;;18.25;13.25;;;;;23.46;42.99;100974.84;4931302;28;46996;-51
2023/07/02 09:08:26;;;;;;;;;19.50;15.00;;;;;23.49;42.01;100975.59;4918778;28;45393;-51
2023/07/02 09:10:51;;;;;;;;;18.25;16.25;;;;;23.50;42.07;100969.34;4918797;28;45230;-52
2023/07/02 09:13:16;;;;;;;;;19.00;15.75;;;;;23.52;41.67;100967.47;4918805;28;45477;-48
2023/07/02 09:15:42;;;;;;;;;18.25;15.75;;;;;23.52;41.32;100967.47;4917127;28;47771;-53
2023/07/02 09:18:23;;;;;;;;;16.50;15.25;;;;;23.50;41.88;100966.72;4918531;28;45551;-52
2023/07/02 09:20:54;;;;;;;;;18.50;16.50;;;;;23.50;41.54;100964.91;4918672;28;45414;-52
2023/07/02 09:23:20;;;;;;;;;17.00;15.50;;;;;23.53;41.70;100972.63;4918785;28;45431;-52
2023/07/02 09:25:46;;;;;;;;;16.50;14.25;;;;;23.56;41.39;100964.50;4918552;28;46417;-53
2023/07/02 09:28:29;;;;;;;;;17.50;14.75;;;;;23.56;41.20;100964.50;4918512;28;48830;-53
2023/07/02 09:30:56;;;;;;;;;17.00;15.00;;;;;23.57;41.16;100962.69;4918618;28;45393;-54
2023/07/02 09:33:24;;;;;;;;;22.00;16.75;;;;;23.57;41.51;100966.22;4918699;28;45463;-51
2023/07/02 09:35:51;;;;;;;;;16.75;11.75;;;;;23.55;40.74;100961.94;4918384;28;45661;-54
2023/07/02 09:38:16;;;;;;;;;16.75;13.25;;;;;23.59;40.89;100964.28;4934653;28;45182;-52
2023/07/02 09:40:52;;;;;;;;;18.75;15.00;;;;;23.61;40.76;100966.84;4920513;28;45452;-55
2023/07/02 09:43:18;;;;;;;;;13.75;11.00;;;;;23.61;40.33;100965.03;4918559;28;45525;-56
2023/07/02 09:45:46;;;;;;;;;17.75;16.00;;;;;23.61;40.56;100964.19;4920809;28;45729;-55
2023/07/02 09:48:15;;;;;;;;;14.75;13.25;;;;;23.63;40.77;100962.31;4922062;28;45780;-55
2023/07/02 09:50:44;;;;;;;;;16.50;12.75;;;;;23.65;40.12;100963.03;4921884;28;45354;-55
2023/07/02 09:53:11;;;;;;;;;22.00;14.00;;;;;23.66;40.12;100969.19;4921790;28;45261;-54
2023/07/02 09:55:38;;;;;;;;;17.50;14.00;;;;;23.66;40.23;100963.88;4921456;28;46656;-49
2023/07/02 09:58:04;;;;;;;;;17.75;11.50;;;;;23.66;39.45;100964.72;4920257;28;45726;-54
2023/07/02 10:00:30;;;;;;;;;17.00;13.75;;;;;23.67;39.70;100966.41;4921720;28;45268;-55
2023/07/02 10:02:55;;;;;;;;;13.50;11.25;;;;;23.69;39.54;100966.34;4921961;28;45603;-52
2023/07/02 10:05:31;;;;;;;;;16.00;13.50;;;;;23.70;39.51;100960.09;4921387;28;45323;-51
2023/07/02 10:07:58;;;;;;;;;17.25;13.75;;;;;23.72;39.51;100956.41;4921480;28;45879;-53
2023/07/02 10:10:28;;;;;;;;;16.00;12.25;;;;;23.73;39.69;100965.16;4921571;28;45436;-50
2023/07/02 10:12:53;;;;;;;;;20.75;17.25;;;;;23.75;39.86;100958.84;4920473;28;45474;-52
2023/07/02 10:15:29;;;;;;;;;17.00;13.50;;;;;23.77;39.78;100962.22;4920840;28;53462;-47
2023/07/02 10:17:56;;;;;;;;;17.50;13.00;;;;;23.80;39.77;100974.41;4919195;28;45322;-46
2023/07/02 10:20:33;;;;;;;;;17.00;10.50;;;;;23.82;39.24;100955.78;4921280;28;45252;-51
2023/07/02 10:22:59;;;;;;;;;13.00;12.00;;;;;23.84;38.93;100956.53;4921481;28;45562;-49
2023/07/02 10:25:30;;;;;;;;;13.75;11.50;;;;;23.83;38.68;100960.13;4921162;28;47163;-49
2023/07/02 10:27:56;;;;;;;;;20.25;13.00;;;;;23.82;38.57;100950.47;4921382;28;45318;-45
2023/07/02 10:30:36;;;;;;;;;21.50;15.00;;;;;23.84;38.93;100956.53;4921292;28;45422;-53
2023/07/02 10:33:15;;;;;;;;;16.25;11.25;;;;;23.82;38.56;100953.94;4921632;28;45394;-55
2023/07/02 10:35:42;;;;;;;;;18.00;13.00;;;;;23.83;38.30;100950.34;4921259;28;45571;-55
2023/07/02 10:38:14;;;;;;;;;17.00;13.75;;;;;23.84;38.99;100948.56;4920999;28;45471;-55
2023/07/02 10:40:42;;;;;;;;;13.50;10.50;;;;;23.86;38.86;100951.97;4921050;28;45373;-48
2023/07/02 10:43:07;;;;;;;;;11.00;11.00;;;;;23.86;38.45;100946.69;4921417;28;45664;-53
2023/07/02 10:45:34;;;;;;;;;15.25;14.00;;;;;23.88;38.86;100952.69;4920929;28;47357;-52
2023/07/02 10:48:08;;;;;;;;;14.50;13.00;;;;;23.88;37.81;100952.69;4920844;28;46072;-50
2023/07/02 10:50:33;;;;;;;;;14.75;11.50;;;;;23.90;38.24;100948.16;4920988;28;45382;-51
2023/07/02 10:52:59;;;;;;;;;9.00;6.50;;;;;23.91;38.05;100941.91;4921139;28;45386;-49
2023/07/02 10:55:27;;;;;;;;;14.75;12.00;;;;;23.92;38.20;100938.31;4919301;28;47073;-52
2023/07/02 10:58:06;;;;;;;;;14.00;11.50;;;;;23.94;38.42;100939.06;4919846;28;45361;-54
2023/07/02 11:00:32;;;;;;;;;17.00;12.00;;;;;23.95;37.79;100940.78;4920851;28;45404;-54
2023/07/02 11:02:58;;;;;;;;;12.00;10.00;;;;;23.96;37.99;100939.84;4919688;28;45533;-54
2023/07/02 11:05:23;;;;;;;;;12.00;10.25;;;;;23.98;38.33;100939.72;4920644;28;45414;-53